createdAt,value
2022-11-20T00:01:38.324Z,14.07
2022-11-20T00:04:06.549Z,22.08
2022-11-20T00:06:34.570Z,13.80
2022-11-20T00:09:02.927Z,14.45
2022-11-20T00:11:32.768Z,12.75
2022-11-20T00:14:03.178Z,13.43
2022-11-20T00:16:34.758Z,13.48
2022-11-20T00:19:02.876Z,13.48
2022-11-20T00:21:31.787Z,11.13
2022-11-20T00:24:00.302Z,11.73
2022-11-20T00:26:29.771Z,9.80
2022-11-20T00:29:00.510Z,16.35
2022-11-20T00:31:30.023Z,13.00
2022-11-20T00:33:58.857Z,14.70
2022-11-20T00:36:29.439Z,12.18
2022-11-20T00:38:59.912Z,12.05
2022-11-20T00:41:30.298Z,8.93
2022-11-20T00:43:59.078Z,13.77
2022-11-20T00:46:29.203Z,14.32
2022-11-20T00:48:58.295Z,14.27
2022-11-20T00:51:27.987Z,13.18
2022-11-20T00:53:58.282Z,10.43
2022-11-20T00:56:26.611Z,12.45
2022-11-20T00:58:55.569Z,11.32
2022-11-20T01:01:26.615Z,15.30
2022-11-20T01:03:58.337Z,11.48
2022-11-20T01:06:28.100Z,12.60
2022-11-20T01:08:59.557Z,13.88
2022-11-20T01:11:36.317Z,11.18
2022-11-20T01:14:08.048Z,10.82
2022-11-20T01:16:38.847Z,8.93
2022-11-20T01:19:12.897Z,15.30
2022-11-20T01:21:45.645Z,11.50
2022-11-20T01:24:17.299Z,10.10
2022-11-20T01:26:48.375Z,13.43
2022-11-20T01:29:23.341Z,11.57
2022-11-20T01:31:53.705Z,12.35
2022-11-20T01:34:23.716Z,8.82
2022-11-20T01:36:53.960Z,6.55
2022-11-20T01:39:25.344Z,8.98
2022-11-20T01:42:13.307Z,12.55
2022-11-20T01:44:56.676Z,9.45
2022-11-20T01:47:37.026Z,11.38
2022-11-20T01:50:15.765Z,7.47
2022-11-20T01:53:00.786Z,6.60
2022-11-20T01:55:33.699Z,9.63
2022-11-20T01:58:03.020Z,9.80
2022-11-20T02:00:32.109Z,13.80
2022-11-20T02:03:05.019Z,7.55
2022-11-20T02:05:35.850Z,14.82
2022-11-20T02:08:06.823Z,13.25
2022-11-20T02:10:35.790Z,12.18
2022-11-20T02:13:23.836Z,11.02
2022-11-20T02:15:53.079Z,10.43
2022-11-20T02:18:22.284Z,12.48
2022-11-20T02:20:58.958Z,10.82
2022-11-20T02:23:33.049Z,7.78
2022-11-20T02:26:05.551Z,8.05
2022-11-20T02:28:34.361Z,10.13
2022-11-20T02:31:02.629Z,5.78
2022-11-20T02:33:30.550Z,6.45
2022-11-20T02:35:58.791Z,6.80
2022-11-20T02:38:26.751Z,11.38
2022-11-20T02:40:55.795Z,6.78
2022-11-20T02:43:24.813Z,6.88
2022-11-20T02:45:53.006Z,7.55
2022-11-20T02:48:20.780Z,13.93
2022-11-20T02:50:50.130Z,5.55
2022-11-20T02:53:17.872Z,8.07
2022-11-20T02:55:46.040Z,6.28
2022-11-20T02:58:13.869Z,5.95
2022-11-20T03:00:42.082Z,7.90
2022-11-20T03:03:09.923Z,10.88
2022-11-20T03:05:39.430Z,5.05
2022-11-20T03:08:07.391Z,8.77
2022-11-20T03:10:35.621Z,6.80
2022-11-20T03:13:03.499Z,6.72
2022-11-20T03:15:32.061Z,7.85
2022-11-20T03:18:00.030Z,5.63
2022-11-20T03:20:28.259Z,5.32
2022-11-20T03:22:56.661Z,7.82
2022-11-20T03:25:25.077Z,7.38
2022-11-20T03:27:53.040Z,5.35
2022-11-20T03:30:21.260Z,6.00
2022-11-20T03:32:49.660Z,6.80
2022-11-20T03:35:17.793Z,7.03
2022-11-20T03:37:47.102Z,9.75
2022-11-20T03:40:15.389Z,7.20
2022-11-20T03:42:46.170Z,6.30
2022-11-20T03:45:19.152Z,13.13
2022-11-20T03:47:47.830Z,6.35
2022-11-20T03:50:16.272Z,4.07
2022-11-20T03:52:44.182Z,5.00
2022-11-20T03:55:12.483Z,4.90
2022-11-20T03:57:40.348Z,12.93
2022-11-20T04:00:10.492Z,3.78
2022-11-20T04:02:38.320Z,5.78
2022-11-20T04:05:07.050Z,6.18
2022-11-20T04:07:35.892Z,5.65
2022-11-20T04:10:04.539Z,6.10
2022-11-20T04:12:35.912Z,4.95
2022-11-20T04:15:04.400Z,5.70
2022-11-20T04:17:32.220Z,5.97
2022-11-20T04:20:01.072Z,6.03
2022-11-20T04:22:29.013Z,5.85
2022-11-20T04:24:57.221Z,6.03
2022-11-20T04:27:25.101Z,6.38
2022-11-20T04:29:53.241Z,4.65
2022-11-20T04:32:21.069Z,7.50
2022-11-20T04:34:49.461Z,8.18
2022-11-20T04:37:18.179Z,5.07
2022-11-20T04:39:47.029Z,7.82
2022-11-20T04:42:30.140Z,5.32
2022-11-20T04:44:59.735Z,5.82
2022-11-20T04:47:27.640Z,6.25
2022-11-20T04:49:55.884Z,5.03
2022-11-20T04:52:23.804Z,5.10
2022-11-20T04:54:54.012Z,5.78
2022-11-20T04:57:21.942Z,6.22
2022-11-20T04:59:50.088Z,4.75
2022-11-20T05:02:18.021Z,7.40
2022-11-20T05:04:46.399Z,11.73
2022-11-20T05:07:14.443Z,8.63
2022-11-20T05:09:43.150Z,9.82
2022-11-20T05:12:11.326Z,8.07
2022-11-20T05:14:39.489Z,8.02
2022-11-20T05:17:07.621Z,5.50
2022-11-20T05:19:36.831Z,12.38
2022-11-20T05:22:06.655Z,6.90
2022-11-20T05:24:35.970Z,6.20
2022-11-20T05:27:03.859Z,17.25
2022-11-20T05:29:32.144Z,6.25
2022-11-20T05:32:00.036Z,4.65
2022-11-20T05:34:28.180Z,6.75
2022-11-20T05:36:55.992Z,4.47
2022-11-20T05:39:24.266Z,5.60
2022-11-20T05:42:12.429Z,7.90
2022-11-20T05:44:43.129Z,7.68
2022-11-20T05:47:11.750Z,46.35
2022-11-20T05:49:39.969Z,17.35
2022-11-20T05:52:07.831Z,8.98
2022-11-20T05:54:37.298Z,12.02
2022-11-20T05:57:06.200Z,5.18
2022-11-20T05:59:34.341Z,4.90
2022-11-20T06:02:02.190Z,8.68
2022-11-20T06:04:30.402Z,6.57
2022-11-20T06:06:58.238Z,5.05
2022-11-20T06:09:26.440Z,8.60
2022-11-20T06:11:54.395Z,11.65
2022-11-20T06:14:22.540Z,11.00
2022-11-20T06:16:50.993Z,11.00
2022-11-20T06:19:19.299Z,6.72
2022-11-20T06:21:50.723Z,7.68
2022-11-20T06:24:19.290Z,10.18
2022-11-20T06:26:47.190Z,7.95
2022-11-20T06:29:15.429Z,12.90
2022-11-20T06:31:43.792Z,8.85
2022-11-20T06:34:12.110Z,9.07
2022-11-20T06:36:41.058Z,12.30
2022-11-20T06:39:09.572Z,7.32
2022-11-20T06:41:38.453Z,10.02
2022-11-20T06:44:06.984Z,10.18
2022-11-20T06:46:35.112Z,7.88
2022-11-20T06:49:03.953Z,6.90
2022-11-20T06:51:31.942Z,7.35
2022-11-20T06:54:02.184Z,7.25
2022-11-20T06:56:30.382Z,6.78
2022-11-20T06:58:59.913Z,8.48
2022-11-20T07:01:28.038Z,7.88
2022-11-20T07:03:56.573Z,7.97
2022-11-20T07:06:24.583Z,7.68
2022-11-20T07:08:54.067Z,11.38
2022-11-20T07:11:22.148Z,11.05
2022-11-20T07:13:52.396Z,20.25
2022-11-20T07:16:20.405Z,17.65
2022-11-20T07:18:50.701Z,30.38
2022-11-20T07:21:19.133Z,15.15
2022-11-20T07:23:48.008Z,18.05
2022-11-20T07:26:16.034Z,8.85
2022-11-20T07:28:47.166Z,5.88
2022-11-20T07:31:19.059Z,9.23
2022-11-20T07:33:49.594Z,6.47
2022-11-20T07:36:17.602Z,12.23
2022-11-20T07:38:45.996Z,9.93
2022-11-20T07:41:14.025Z,9.45
2022-11-20T07:43:45.967Z,6.38
2022-11-20T07:46:13.939Z,12.02
2022-11-20T07:48:42.374Z,10.40
2022-11-20T07:51:10.510Z,6.60
2022-11-20T07:53:38.843Z,16.35
2022-11-20T07:56:07.501Z,5.78
2022-11-20T07:58:35.852Z,19.23
2022-11-20T08:01:06.431Z,10.13
2022-11-20T08:03:34.923Z,8.50
2022-11-20T08:06:03.824Z,18.42
2022-11-20T08:08:33.816Z,12.18
2022-11-20T08:11:21.847Z,7.45
2022-11-20T08:14:08.606Z,9.52
2022-11-20T08:16:36.768Z,6.55
2022-11-20T08:19:05.814Z,8.57
2022-11-20T08:21:38.157Z,6.32
2022-11-20T08:24:09.142Z,5.70
2022-11-20T08:26:39.573Z,6.07
2022-11-20T08:29:08.795Z,5.13
2022-11-20T08:31:37.188Z,5.22
2022-11-20T08:34:25.543Z,9.77
2022-11-20T08:36:53.603Z,4.00
2022-11-20T08:39:22.322Z,9.40
2022-11-20T08:41:50.582Z,4.40
2022-11-20T08:44:18.892Z,10.88
2022-11-20T08:46:48.303Z,10.55
2022-11-20T08:49:17.855Z,11.63
2022-11-20T08:51:46.511Z,6.55
2022-11-20T08:54:15.006Z,6.22
2022-11-20T08:56:43.163Z,7.25
2022-11-20T08:59:36.794Z,10.18
2022-11-20T09:01:59.782Z,15.00
2022-11-20T09:04:28.192Z,5.20
2022-11-20T09:06:56.304Z,9.02
2022-11-20T09:09:25.126Z,5.63
2022-11-20T09:11:54.283Z,10.10
2022-11-20T09:14:22.804Z,4.72
2022-11-20T09:16:50.933Z,3.97
2022-11-20T09:19:34.994Z,5.13
2022-11-20T09:22:04.536Z,4.50
2022-11-20T09:24:33.054Z,8.35
2022-11-20T09:27:04.163Z,4.28
2022-11-20T09:29:32.853Z,7.15
2022-11-20T09:32:00.973Z,7.07
2022-11-20T09:34:29.378Z,2.45
2022-11-20T09:36:58.499Z,5.13
2022-11-20T09:39:28.591Z,7.10
2022-11-20T09:42:18.790Z,2.38
2022-11-20T09:45:00.035Z,11.88
2022-11-20T09:47:43.344Z,12.52
2022-11-20T09:50:51.347Z,4.28
2022-11-20T09:53:38.576Z,18.30
2022-11-20T09:56:12.393Z,6.35
2022-11-20T09:58:53.012Z,5.53
2022-11-20T10:01:31.647Z,5.40
2022-11-20T10:04:15.335Z,5.70
2022-11-20T10:07:30.668Z,5.40
2022-11-20T10:09:56.363Z,4.32
2022-11-20T10:12:50.335Z,6.45
2022-11-20T10:15:29.827Z,4.93
2022-11-20T10:18:12.143Z,4.60
2022-11-20T10:21:05.653Z,5.45
2022-11-20T10:24:04.253Z,4.05
2022-11-20T10:26:59.703Z,6.13
2022-11-20T10:29:35.602Z,29.63
2022-11-20T10:32:12.630Z,6.38
2022-11-20T10:34:59.992Z,7.28
2022-11-20T10:37:30.339Z,3.42
2022-11-20T10:40:26.042Z,9.15
2022-11-20T10:43:01.294Z,4.38
2022-11-20T10:45:41.582Z,10.68
2022-11-20T10:48:16.994Z,9.43
2022-11-20T10:51:01.080Z,7.78
2022-11-20T10:53:52.369Z,9.55
2022-11-20T10:56:26.738Z,7.72
2022-11-20T10:59:27.048Z,4.93
2022-11-20T11:01:55.230Z,12.55
2022-11-20T11:04:42.328Z,10.73
2022-11-20T11:07:32.390Z,6.93
2022-11-20T11:10:01.140Z,8.98
2022-11-20T11:12:30.183Z,7.25
2022-11-20T11:14:58.985Z,10.15
2022-11-20T11:17:30.579Z,20.17
2022-11-20T11:20:17.429Z,7.45
2022-11-20T11:22:50.573Z,5.88
2022-11-20T11:25:53.120Z,5.07
2022-11-20T11:28:26.809Z,6.00
2022-11-20T11:30:55.703Z,7.47
2022-11-20T11:33:27.655Z,6.53
2022-11-20T11:35:58.542Z,6.25
2022-11-20T11:38:41.959Z,6.32
2022-11-20T11:41:27.630Z,6.17
2022-11-20T11:44:36.761Z,8.07
2022-11-20T11:47:07.630Z,10.75
2022-11-20T11:49:36.480Z,8.30
2022-11-20T11:52:18.481Z,15.65
2022-11-20T11:55:01.049Z,12.95
2022-11-20T11:57:42.379Z,17.23
2022-11-20T12:00:15.001Z,16.27
2022-11-20T12:02:45.923Z,19.25
2022-11-20T12:05:27.440Z,15.10
2022-11-20T12:08:14.052Z,14.88
2022-11-20T12:10:48.141Z,19.80
2022-11-20T12:16:02.050Z,25.70
2022-11-20T12:18:30.521Z,25.98
2022-11-20T12:21:24.341Z,22.30
2022-11-20T12:24:03.984Z,19.48
2022-11-20T12:26:50.641Z,19.58
2022-11-20T12:29:21.485Z,21.15
2022-11-20T12:32:19.850Z,20.23
2022-11-20T12:35:11.765Z,20.25
2022-11-20T12:37:46.078Z,27.90
2022-11-20T12:43:41.650Z,20.52
2022-11-20T12:46:12.520Z,19.83
2022-11-20T12:48:56.050Z,21.80
2022-11-20T12:51:43.262Z,21.53
2022-11-20T12:54:32.633Z,20.00
2022-11-20T12:57:27.673Z,19.40
2022-11-20T13:00:08.486Z,18.92
2022-11-20T13:03:00.364Z,22.58
2022-11-20T13:05:47.376Z,24.35
2022-11-20T13:08:29.904Z,25.25
2022-11-20T13:10:58.063Z,25.80
2022-11-20T13:13:57.883Z,24.92
2022-11-20T13:16:39.874Z,28.50
2022-11-20T13:19:13.554Z,30.00
2022-11-20T13:21:52.815Z,28.65
2022-11-20T13:24:20.884Z,25.67
2022-11-20T13:27:00.603Z,28.48
2022-11-20T13:29:28.732Z,26.27
2022-11-20T13:32:23.232Z,27.55
2022-11-20T13:34:58.082Z,28.88
2022-11-20T13:37:30.031Z,26.70
2022-11-20T13:40:10.863Z,26.85
2022-11-20T13:42:52.323Z,27.02
2022-11-20T13:45:27.646Z,23.80
2022-11-20T13:47:58.913Z,23.77
2022-11-20T13:50:39.321Z,28.55
2022-11-20T13:53:32.514Z,30.58
2022-11-20T13:56:43.521Z,32.33
2022-11-20T13:59:41.699Z,23.00
2022-11-20T14:02:19.344Z,26.15
2022-11-20T14:04:51.005Z,28.42
2022-11-20T14:07:21.753Z,24.50
2022-11-20T14:09:56.017Z,21.20
2022-11-20T14:12:33.120Z,23.58
2022-11-20T14:15:01.289Z,27.40
2022-11-20T14:17:36.722Z,21.98
2022-11-20T14:20:13.847Z,16.92
2022-11-20T14:22:52.772Z,24.65
2022-11-20T14:25:26.113Z,26.27
2022-11-20T14:27:55.413Z,18.98
2022-11-20T14:30:30.543Z,21.33
2022-11-20T14:33:03.841Z,23.15
2022-11-20T14:38:05.603Z,24.75
2022-11-20T14:40:37.903Z,20.90
2022-11-20T14:43:23.412Z,22.35
2022-11-20T14:46:01.712Z,20.30
2022-11-20T14:48:42.177Z,21.48
2022-11-20T14:51:29.539Z,21.08
2022-11-20T14:53:57.516Z,21.45
2022-11-20T14:56:26.352Z,23.45
2022-11-20T14:58:59.303Z,28.27
2022-11-20T15:04:09.012Z,19.83
2022-11-20T15:06:39.686Z,18.13
2022-11-20T15:09:15.362Z,24.98
2022-11-20T15:12:04.402Z,20.95
2022-11-20T15:14:33.861Z,20.38
2022-11-20T15:17:02.886Z,23.75
2022-11-20T15:19:30.802Z,23.27
2022-11-20T15:22:00.274Z,22.75
2022-11-20T15:24:28.245Z,27.38
2022-11-20T15:26:56.447Z,25.75
2022-11-20T15:29:25.101Z,28.10
2022-11-20T15:31:55.496Z,24.65
2022-11-20T15:34:23.764Z,26.25
2022-11-20T15:36:52.623Z,31.45
2022-11-20T15:39:20.487Z,27.73
2022-11-20T15:41:48.701Z,26.15
2022-11-20T15:44:16.501Z,44.35
2022-11-20T15:46:46.388Z,27.85
2022-11-20T15:49:19.938Z,28.73
2022-11-20T15:51:50.947Z,27.65
2022-11-20T15:54:24.230Z,25.20
2022-11-20T15:56:55.427Z,28.58
2022-11-20T15:59:23.325Z,25.85
2022-11-20T16:01:51.601Z,31.45
2022-11-20T16:04:19.784Z,32.00
2022-11-20T16:06:48.031Z,28.77
2022-11-20T16:09:15.895Z,27.27
2022-11-20T16:11:44.346Z,88.55
2022-11-20T16:14:31.115Z,289.38
2022-11-20T16:16:59.323Z,264.80
2022-11-20T16:19:27.185Z,102.28
2022-11-20T16:22:01.164Z,57.03
2022-11-20T16:24:31.460Z,38.60
2022-11-20T16:27:00.276Z,31.27
2022-11-20T16:29:28.683Z,29.65
2022-11-20T16:31:58.165Z,34.55
2022-11-20T16:34:26.165Z,26.80
2022-11-20T16:36:54.625Z,28.17
2022-11-20T16:39:24.100Z,32.45
2022-11-20T16:41:52.574Z,36.00
2022-11-20T16:44:21.912Z,35.90
2022-11-20T16:46:50.617Z,28.50
2022-11-20T16:49:18.634Z,31.85
2022-11-20T16:51:47.246Z,37.83
2022-11-20T16:54:20.546Z,32.90
2022-11-20T16:56:51.199Z,33.00
2022-11-20T16:59:19.400Z,40.55
2022-11-20T17:01:47.743Z,40.17
2022-11-20T17:04:16.238Z,37.97
2022-11-20T17:06:45.245Z,49.53
2022-11-20T17:09:14.016Z,44.30
2022-11-20T17:11:43.531Z,42.35
2022-11-20T17:14:12.324Z,42.42
2022-11-20T17:16:40.805Z,43.63
2022-11-20T17:19:09.982Z,54.03
2022-11-20T17:21:41.376Z,50.75
2022-11-20T17:24:12.134Z,48.30
2022-11-20T17:26:42.378Z,62.70
2022-11-20T17:29:18.766Z,58.63
2022-11-20T17:31:47.655Z,69.00
2022-11-20T17:34:16.573Z,55.70
2022-11-20T17:36:46.035Z,51.85
2022-11-20T17:39:15.969Z,54.63
2022-11-20T17:41:44.758Z,47.10
2022-11-20T17:44:13.465Z,41.50
2022-11-20T17:46:42.840Z,42.10
2022-11-20T17:49:10.738Z,35.53
2022-11-20T17:51:39.031Z,37.38
2022-11-20T17:54:09.602Z,39.28
2022-11-20T17:56:56.478Z,46.05
2022-11-20T17:59:24.445Z,41.15
2022-11-20T18:01:52.916Z,40.45
2022-11-20T18:04:21.445Z,40.65
2022-11-20T18:06:51.411Z,36.97
2022-11-20T18:09:19.526Z,43.90
2022-11-20T18:11:47.816Z,45.25
2022-11-20T18:14:26.752Z,35.10
2022-11-20T18:17:01.481Z,33.83
2022-11-20T18:19:33.171Z,38.83
2022-11-20T18:22:04.327Z,37.30
2022-11-20T18:24:33.159Z,32.63
2022-11-20T18:27:01.431Z,37.40
2022-11-20T18:29:31.478Z,40.00
2022-11-20T18:32:00.806Z,40.03
2022-11-20T18:34:29.637Z,40.15
2022-11-20T18:36:59.196Z,37.83
2022-11-20T18:39:27.095Z,43.65
2022-11-20T18:42:14.527Z,45.10
2022-11-20T18:44:51.728Z,46.63
2022-11-20T18:47:32.735Z,41.47
2022-11-20T18:50:02.365Z,41.17
2022-11-20T18:52:35.678Z,39.53
2022-11-20T18:55:05.332Z,44.90
2022-11-20T18:57:34.747Z,46.40
2022-11-20T19:00:08.404Z,41.47
2022-11-20T19:02:42.303Z,44.20
2022-11-20T19:05:14.996Z,47.53
2022-11-20T19:07:43.386Z,73.15
2022-11-20T19:10:11.389Z,52.35
2022-11-20T19:12:39.584Z,42.35
2022-11-20T19:15:07.792Z,47.63
2022-11-20T19:17:36.030Z,45.72
2022-11-20T19:20:04.087Z,46.58
2022-11-20T19:22:32.247Z,52.28
2022-11-20T19:25:00.179Z,47.45
2022-11-20T19:27:28.391Z,49.88
2022-11-20T19:30:03.574Z,57.10
2022-11-20T19:32:33.216Z,66.40
2022-11-20T19:35:01.065Z,59.47
2022-11-20T19:37:29.340Z,48.50
2022-11-20T19:39:59.948Z,47.28
2022-11-20T19:42:28.118Z,48.55
2022-11-20T19:44:56.265Z,41.33
2022-11-20T19:47:35.397Z,54.50
2022-11-20T19:50:13.404Z,46.65
2022-11-20T19:52:42.206Z,43.72
2022-11-20T19:55:11.348Z,64.50
2022-11-20T19:57:39.597Z,50.22
2022-11-20T20:00:08.404Z,49.35
2022-11-20T20:02:37.955Z,47.75
2022-11-20T20:05:06.347Z,45.13
2022-11-20T20:07:34.721Z,42.95
2022-11-20T20:10:02.566Z,50.55
2022-11-20T20:12:31.791Z,43.47
2022-11-20T20:14:59.716Z,41.42
2022-11-20T20:17:28.992Z,54.03
2022-11-20T20:19:57.020Z,50.28
2022-11-20T20:22:25.269Z,47.70
2022-11-20T20:24:53.383Z,46.75
2022-11-20T20:27:22.116Z,44.90
2022-11-20T20:29:52.541Z,48.25
2022-11-20T20:32:21.867Z,45.83
2022-11-20T20:34:49.844Z,44.42
2022-11-20T20:37:18.042Z,44.85
2022-11-20T20:39:46.358Z,49.03
2022-11-20T20:42:14.698Z,50.10
2022-11-20T20:45:02.266Z,54.75
2022-11-20T20:47:41.434Z,53.65
2022-11-20T20:50:12.052Z,49.75
2022-11-20T20:52:40.876Z,48.33
2022-11-20T20:55:11.578Z,55.22
2022-11-20T20:57:43.151Z,56.22
2022-11-20T21:00:11.504Z,59.60
2022-11-20T21:02:39.753Z,53.15
2022-11-20T21:05:08.752Z,49.17
2022-11-20T21:07:59.346Z,57.10
2022-11-20T21:10:32.235Z,46.58
2022-11-20T21:13:02.474Z,46.55
2022-11-20T21:15:30.377Z,46.92
2022-11-20T21:17:58.586Z,45.20
2022-11-20T21:20:46.236Z,47.92
2022-11-20T21:23:15.616Z,50.00
2022-11-20T21:25:43.694Z,48.55
2022-11-20T21:28:15.625Z,48.20
2022-11-20T21:30:47.005Z,48.92
2022-11-20T21:33:15.282Z,43.72
2022-11-20T21:35:43.181Z,45.20
2022-11-20T21:38:11.423Z,43.00
2022-11-20T21:40:39.305Z,42.88
2022-11-20T21:43:08.305Z,42.83
2022-11-20T21:45:36.187Z,46.90
2022-11-20T21:48:04.734Z,44.63
2022-11-20T21:50:35.395Z,39.00
2022-11-20T21:53:03.648Z,42.63
2022-11-20T21:55:31.490Z,49.25
2022-11-20T21:57:59.895Z,40.72
2022-11-20T22:00:27.705Z,41.42
2022-11-20T22:02:55.967Z,39.63
2022-11-20T22:05:23.815Z,43.47
2022-11-20T22:07:53.144Z,40.40
2022-11-20T22:10:21.013Z,39.30
2022-11-20T22:12:49.235Z,40.22
2022-11-20T22:15:33.057Z,40.20
2022-11-20T22:18:14.165Z,40.33
2022-11-20T22:20:42.380Z,48.90
2022-11-20T22:23:11.729Z,43.20
2022-11-20T22:25:39.700Z,52.35
2022-11-20T22:28:07.845Z,41.28
2022-11-20T22:30:35.646Z,47.17
2022-11-20T22:33:06.716Z,36.90
2022-11-20T22:35:38.469Z,44.90
2022-11-20T22:38:08.200Z,40.03
2022-11-20T22:40:36.210Z,42.33
2022-11-20T22:43:04.538Z,37.05
2022-11-20T22:45:32.707Z,42.25
2022-11-20T22:48:01.028Z,38.17
2022-11-20T22:50:29.755Z,37.53
2022-11-20T22:52:58.239Z,41.17
2022-11-20T22:55:26.237Z,40.35
2022-11-20T22:57:54.538Z,43.25
2022-11-20T23:00:22.683Z,39.13
2022-11-20T23:02:51.058Z,37.40
2022-11-20T23:05:19.028Z,35.17
2022-11-20T23:07:47.402Z,39.65
2022-11-20T23:10:15.475Z,37.65
2022-11-20T23:12:43.859Z,39.97
2022-11-20T23:15:11.937Z,38.50
2022-11-20T23:17:40.209Z,40.70
2022-11-20T23:20:10.210Z,37.58
2022-11-20T23:22:39.658Z,37.65
2022-11-20T23:25:08.422Z,38.13
2022-11-20T23:27:38.087Z,36.92
2022-11-20T23:30:06.760Z,40.03
2022-11-20T23:32:36.351Z,34.47
2022-11-20T23:35:04.447Z,41.38
2022-11-20T23:37:32.806Z,30.55
2022-11-20T23:40:00.728Z,41.70
2022-11-20T23:42:29.045Z,40.97
2022-11-20T23:44:57.097Z,39.10
2022-11-20T23:47:24.900Z,29.85
2022-11-20T23:49:53.763Z,36.50
2022-11-20T23:52:23.339Z,57.70
2022-11-20T23:54:53.009Z,34.90
2022-11-20T23:57:20.988Z,36.33
2022-11-20T23:59:50.549Z,34.03
